createdAt,value
2017-08-24T00:00:26.343Z,22.10
2017-08-24T00:02:54.712Z,21.33
2017-08-24T00:05:24.364Z,20.37
2017-08-24T00:07:53.923Z,19.77
2017-08-24T00:10:23.484Z,19.50
2017-08-24T00:12:52.414Z,20.10
2017-08-24T00:15:20.723Z,22.17
2017-08-24T00:17:50.407Z,21.27
2017-08-24T00:20:18.570Z,20.77
2017-08-24T00:22:48.242Z,21.63
2017-08-24T00:25:16.838Z,21.90
2017-08-24T00:27:46.475Z,21.03
2017-08-24T00:30:15.062Z,21.07
2017-08-24T00:32:44.740Z,20.23
2017-08-24T00:35:13.671Z,22.57
2017-08-24T00:37:42.012Z,20.70
2017-08-24T00:40:10.339Z,19.83
2017-08-24T00:42:38.637Z,20.10
2017-08-24T00:45:08.496Z,20.23
2017-08-24T00:47:36.851Z,21.93
2017-08-24T00:50:06.512Z,22.00
2017-08-24T00:52:36.224Z,21.27
2017-08-24T00:55:06.077Z,20.13
2017-08-24T00:57:34.374Z,21.33
2017-08-24T01:00:02.716Z,22.60
2017-08-24T01:02:31.058Z,21.67
2017-08-24T01:05:00.855Z,20.30
2017-08-24T01:07:29.171Z,22.63
2017-08-24T01:09:57.490Z,21.07
2017-08-24T01:12:25.772Z,20.70
2017-08-24T01:14:55.218Z,19.87
2017-08-24T01:17:23.547Z,22.10
2017-08-24T01:19:51.838Z,22.03
2017-08-24T01:22:21.517Z,21.93
2017-08-24T01:24:50.475Z,22.37
2017-08-24T01:27:20.263Z,20.17
2017-08-24T01:29:48.595Z,20.90
2017-08-24T01:32:16.923Z,21.87
2017-08-24T01:34:45.971Z,21.07
2017-08-24T01:37:14.263Z,19.13
2017-08-24T01:39:44.103Z,20.77
2017-08-24T01:42:12.392Z,18.27
2017-08-24T01:44:42.026Z,17.20
2017-08-24T01:47:10.683Z,17.10
2017-08-24T01:49:38.984Z,17.30
2017-08-24T01:52:07.282Z,17.13
2017-08-24T01:54:35.656Z,16.80
2017-08-24T01:57:03.966Z,17.87
2017-08-24T01:59:33.404Z,10.83
2017-08-24T02:02:01.743Z,7.10
2017-08-24T02:04:30.015Z,7.93
2017-08-24T02:06:59.647Z,7.10
2017-08-24T02:09:28.252Z,6.63
2017-08-24T02:11:56.522Z,7.20
2017-08-24T02:14:24.818Z,5.27
2017-08-24T02:16:53.924Z,7.03
2017-08-24T02:19:22.205Z,5.83
2017-08-24T02:21:50.480Z,6.50
2017-08-24T02:24:20.602Z,6.47
2017-08-24T02:26:48.754Z,6.27
2017-08-24T02:29:18.162Z,5.90
2017-08-24T02:31:46.503Z,7.10
2017-08-24T02:34:16.122Z,5.63
2017-08-24T02:36:44.663Z,6.77
2017-08-24T02:39:13.389Z,6.97
2017-08-24T02:41:41.675Z,7.07
2017-08-24T02:44:09.967Z,10.13
2017-08-24T02:46:39.834Z,9.53
2017-08-24T02:49:09.514Z,9.50
2017-08-24T02:51:38.449Z,8.97
2017-08-24T02:54:06.807Z,10.60
2017-08-24T02:56:35.506Z,9.60
2017-08-24T02:59:03.814Z,9.37
2017-08-24T03:01:32.139Z,9.53
2017-08-24T03:04:01.935Z,10.37
2017-08-24T03:06:30.223Z,10.67
2017-08-24T03:08:58.562Z,10.67
2017-08-24T03:11:26.851Z,10.73
2017-08-24T03:13:56.275Z,10.20
2017-08-24T03:16:24.610Z,10.10
2017-08-24T03:18:52.912Z,10.77
2017-08-24T03:21:21.190Z,10.57
2017-08-24T03:23:49.518Z,9.97
2017-08-24T03:26:17.798Z,10.03
2017-08-24T03:28:47.586Z,11.20
2017-08-24T03:31:15.924Z,10.60
2017-08-24T03:33:45.559Z,11.77
2017-08-24T03:36:15.234Z,12.47
2017-08-24T03:38:43.562Z,10.70
2017-08-24T03:41:11.854Z,10.50
2017-08-24T03:43:41.647Z,11.90
2017-08-24T03:46:10.004Z,11.00
2017-08-24T03:48:38.310Z,10.87
2017-08-24T03:51:06.757Z,10.00
2017-08-24T03:53:35.215Z,10.50
2017-08-24T03:56:03.518Z,9.77
2017-08-24T03:58:32.584Z,10.27
2017-08-24T04:01:00.924Z,9.67
2017-08-24T04:03:29.199Z,9.53
2017-08-24T04:05:57.879Z,11.23
2017-08-24T04:08:27.731Z,9.43
2017-08-24T04:10:57.371Z,9.83
2017-08-24T04:13:25.927Z,9.20
2017-08-24T04:15:54.260Z,9.43
2017-08-24T04:18:22.562Z,9.13
2017-08-24T04:20:51.613Z,9.77
2017-08-24T04:23:20.711Z,9.90
2017-08-24T04:25:49.748Z,9.03
2017-08-24T04:28:18.030Z,8.30
2017-08-24T04:30:46.356Z,9.80
2017-08-24T04:33:14.634Z,8.90
2017-08-24T04:35:44.051Z,8.93
2017-08-24T04:38:12.687Z,8.93
2017-08-24T04:40:40.962Z,8.90
2017-08-24T04:43:10.747Z,7.60
2017-08-24T04:45:39.135Z,8.77
2017-08-24T04:48:07.432Z,7.77
2017-08-24T04:50:35.719Z,8.70
2017-08-24T04:53:05.546Z,9.20
2017-08-24T04:55:33.726Z,8.50
2017-08-24T04:58:02.014Z,7.87
2017-08-24T05:00:31.121Z,8.10
2017-08-24T05:03:00.745Z,7.37
2017-08-24T05:05:29.296Z,8.87
2017-08-24T05:07:57.651Z,8.30
2017-08-24T05:10:27.281Z,7.30
2017-08-24T05:12:55.835Z,8.47
2017-08-24T05:15:24.175Z,6.73
2017-08-24T05:17:52.455Z,8.03
2017-08-24T05:20:20.730Z,9.03
2017-08-24T05:22:49.058Z,8.20
2017-08-24T05:25:17.342Z,7.40
2017-08-24T05:27:46.752Z,7.90
2017-08-24T05:30:15.106Z,7.93
2017-08-24T05:32:43.386Z,6.87
2017-08-24T05:35:11.666Z,7.93
2017-08-24T05:37:40.007Z,8.03
2017-08-24T05:40:09.798Z,6.70
2017-08-24T05:42:38.096Z,7.37
2017-08-24T05:45:07.204Z,7.03
2017-08-24T05:47:35.503Z,7.80
2017-08-24T05:50:03.803Z,7.47
2017-08-24T05:52:32.143Z,7.83
2017-08-24T05:55:00.472Z,6.87
2017-08-24T05:57:29.883Z,8.17
2017-08-24T05:59:58.220Z,7.30
2017-08-24T06:02:27.269Z,7.70
2017-08-24T06:04:56.314Z,7.83
2017-08-24T06:07:24.660Z,7.87
2017-08-24T06:09:52.952Z,7.53
2017-08-24T06:12:21.227Z,7.70
2017-08-24T06:14:49.558Z,7.63
2017-08-24T06:17:17.833Z,7.63
2017-08-24T06:19:46.879Z,8.50
2017-08-24T06:22:16.004Z,8.00
2017-08-24T06:24:45.054Z,7.13
2017-08-24T06:27:13.331Z,7.00
2017-08-24T06:29:41.690Z,7.47
2017-08-24T06:32:10.004Z,7.37
2017-08-24T06:34:39.805Z,7.70
2017-08-24T06:37:08.177Z,7.07
2017-08-24T06:39:36.477Z,7.03
2017-08-24T06:42:04.770Z,8.47
2017-08-24T06:44:34.674Z,7.37
2017-08-24T06:47:03.002Z,7.43
2017-08-24T06:49:31.286Z,7.27
2017-08-24T06:52:00.757Z,8.07
2017-08-24T06:54:29.040Z,7.60
2017-08-24T06:56:57.320Z,9.57
2017-08-24T06:59:27.022Z,7.03
2017-08-24T07:01:55.571Z,8.87
2017-08-24T07:04:23.868Z,9.23
2017-08-24T07:06:52.978Z,8.23
2017-08-24T07:09:21.259Z,9.00
2017-08-24T07:11:49.543Z,8.50
2017-08-24T07:14:19.396Z,9.00
2017-08-24T07:16:47.671Z,11.43
2017-08-24T07:19:15.961Z,11.30
2017-08-24T07:21:44.296Z,9.93
2017-08-24T07:24:12.599Z,10.73
2017-08-24T07:26:42.050Z,11.90
2017-08-24T07:29:10.439Z,11.83
2017-08-24T07:31:38.760Z,10.67
2017-08-24T07:34:07.087Z,12.10
2017-08-24T07:36:35.476Z,12.67
2017-08-24T07:39:04.942Z,13.13
2017-08-24T07:41:33.230Z,14.17
2017-08-24T07:44:02.702Z,13.70
2017-08-24T07:46:31.766Z,12.90
2017-08-24T07:49:01.399Z,14.50
2017-08-24T07:51:31.116Z,15.27
2017-08-24T07:53:59.404Z,14.00
2017-08-24T07:56:29.031Z,13.57
2017-08-24T07:58:57.285Z,16.30
2017-08-24T08:01:25.566Z,14.40
2017-08-24T08:03:54.264Z,13.23
2017-08-24T08:06:23.759Z,13.97
2017-08-24T08:08:52.039Z,15.00
2017-08-24T08:11:20.327Z,12.43
2017-08-24T08:13:48.662Z,14.83
2017-08-24T08:16:16.956Z,14.57
2017-08-24T08:18:46.746Z,13.07
2017-08-24T08:21:15.096Z,14.50
2017-08-24T08:23:43.398Z,13.50
2017-08-24T08:26:12.488Z,14.10
2017-08-24T08:28:40.845Z,14.57
2017-08-24T08:31:10.503Z,14.30
2017-08-24T08:33:39.452Z,13.90
2017-08-24T08:36:08.985Z,13.43
2017-08-24T08:38:37.287Z,14.53
2017-08-24T08:41:05.647Z,12.87
2017-08-24T08:43:35.547Z,14.87
2017-08-24T08:46:03.850Z,14.93
2017-08-24T08:48:33.675Z,13.23
2017-08-24T08:51:02.055Z,14.47
2017-08-24T08:53:30.351Z,13.37
2017-08-24T08:55:58.634Z,14.00
2017-08-24T08:58:28.484Z,14.83
2017-08-24T09:00:56.784Z,15.00
2017-08-24T09:03:25.063Z,14.10
2017-08-24T09:05:54.171Z,13.93
2017-08-24T09:08:22.456Z,14.60
2017-08-24T09:10:52.104Z,14.03
2017-08-24T09:13:20.719Z,14.87
2017-08-24T09:15:49.015Z,13.53
2017-08-24T09:18:17.303Z,12.07
2017-08-24T09:20:45.650Z,14.10
2017-08-24T09:23:15.079Z,12.00
2017-08-24T09:25:43.763Z,15.20
2017-08-24T09:28:12.143Z,13.60
2017-08-24T09:30:40.479Z,13.43
2017-08-24T09:33:09.558Z,13.00
2017-08-24T09:35:38.669Z,12.53
2017-08-24T09:38:08.111Z,11.80
2017-08-24T09:40:36.504Z,12.50
2017-08-24T09:43:04.964Z,11.30
2017-08-24T09:45:34.032Z,13.20
2017-08-24T09:48:03.687Z,11.83
2017-08-24T09:50:32.311Z,13.00
2017-08-24T09:53:00.604Z,11.07
2017-08-24T09:55:30.405Z,10.60
2017-08-24T09:58:00.114Z,10.33
2017-08-24T10:00:29.034Z,10.33
2017-08-24T10:02:57.322Z,9.60
2017-08-24T10:05:25.676Z,10.03
2017-08-24T10:07:54.883Z,8.67
2017-08-24T10:10:23.170Z,9.20
2017-08-24T10:12:52.854Z,8.47
2017-08-24T10:15:21.776Z,8.43
2017-08-24T10:17:50.069Z,10.53
2017-08-24T10:20:19.777Z,8.97
2017-08-24T10:22:48.340Z,9.40
2017-08-24T10:25:16.614Z,8.40
2017-08-24T10:27:44.962Z,9.73
2017-08-24T10:30:13.247Z,8.73
2017-08-24T10:32:42.316Z,8.40
2017-08-24T10:35:10.682Z,7.77
2017-08-24T10:37:40.488Z,8.50
2017-08-24T10:40:09.512Z,8.23
2017-08-24T10:42:38.623Z,8.87
2017-08-24T10:45:06.941Z,8.93
2017-08-24T10:47:35.231Z,9.90
2017-08-24T10:50:03.980Z,8.40
2017-08-24T10:52:33.026Z,9.83
2017-08-24T10:55:02.685Z,9.63
2017-08-24T10:57:31.663Z,9.13
2017-08-24T11:00:01.301Z,9.90
2017-08-24T11:02:30.838Z,9.67
2017-08-24T11:05:00.230Z,9.20
2017-08-24T11:07:28.517Z,9.90
2017-08-24T11:09:56.829Z,9.23
2017-08-24T11:12:25.911Z,10.30
2017-08-24T11:14:54.191Z,8.87
2017-08-24T11:17:23.867Z,9.23
2017-08-24T11:19:52.065Z,10.37
2017-08-24T11:22:20.351Z,9.53
2017-08-24T11:24:48.670Z,9.53
2017-08-24T11:27:17.747Z,8.20
2017-08-24T11:29:46.787Z,9.10
2017-08-24T11:32:15.102Z,8.73
2017-08-24T11:34:44.182Z,8.83
2017-08-24T11:37:32.701Z,8.90
2017-08-24T11:40:01.414Z,8.90
2017-08-24T11:42:30.078Z,7.47
2017-08-24T11:44:58.434Z,8.50
2017-08-24T11:47:26.727Z,8.57
2017-08-24T11:49:55.771Z,7.83
2017-08-24T11:52:24.866Z,9.13
2017-08-24T11:54:53.975Z,9.57
2017-08-24T11:57:23.048Z,8.33
2017-08-24T11:59:52.123Z,8.00
2017-08-24T12:02:20.438Z,8.57
2017-08-24T12:04:48.716Z,8.60
2017-08-24T12:07:18.412Z,8.53
2017-08-24T12:09:46.598Z,9.30
2017-08-24T12:12:14.875Z,7.40
2017-08-24T12:14:43.187Z,9.43
2017-08-24T12:17:11.500Z,6.70
2017-08-24T12:19:39.779Z,6.80
2017-08-24T12:22:09.471Z,6.47
2017-08-24T12:24:37.678Z,7.57
2017-08-24T12:27:05.978Z,7.37
2017-08-24T12:29:34.328Z,6.67
2017-08-24T12:32:03.435Z,6.10
2017-08-24T12:34:31.702Z,7.90
2017-08-24T12:37:00.012Z,7.57
2017-08-24T12:39:29.819Z,7.70
2017-08-24T12:41:58.090Z,7.13
2017-08-24T12:44:26.390Z,6.53
2017-08-24T12:46:54.712Z,6.87
2017-08-24T12:49:23.007Z,5.97
2017-08-24T12:51:52.481Z,6.13
2017-08-24T12:54:21.551Z,6.40
2017-08-24T12:56:50.599Z,7.13
2017-08-24T12:59:19.299Z,5.70
2017-08-24T13:01:47.619Z,7.33
2017-08-24T13:04:15.882Z,6.00
2017-08-24T13:06:45.690Z,7.30
2017-08-24T13:09:14.018Z,5.60
2017-08-24T13:11:44.083Z,5.43
2017-08-24T13:14:12.410Z,5.67
2017-08-24T13:16:41.486Z,5.67
2017-08-24T13:19:09.768Z,4.90
2017-08-24T13:21:39.644Z,5.60
2017-08-24T13:24:09.320Z,5.13
2017-08-24T13:26:37.871Z,4.97
2017-08-24T13:29:06.228Z,5.80
2017-08-24T13:31:34.559Z,5.60
2017-08-24T13:34:02.863Z,5.03
2017-08-24T13:36:31.167Z,4.73
2017-08-24T13:38:59.498Z,5.00
2017-08-24T13:41:29.122Z,4.83
2017-08-24T13:43:57.304Z,4.30
2017-08-24T13:46:25.614Z,5.60
2017-08-24T13:48:53.908Z,5.67
2017-08-24T13:51:23.582Z,5.17
2017-08-24T13:53:52.157Z,4.97
2017-08-24T13:56:21.193Z,4.10
2017-08-24T13:58:49.463Z,3.97
2017-08-24T14:01:17.803Z,4.20
2017-08-24T14:03:47.582Z,4.00
2017-08-24T14:06:17.244Z,4.80
2017-08-24T14:08:45.822Z,4.57
2017-08-24T14:11:14.158Z,4.80
2017-08-24T14:13:42.467Z,4.50
2017-08-24T14:16:10.781Z,4.40
2017-08-24T14:18:39.067Z,4.33
2017-08-24T14:21:07.390Z,3.90
2017-08-24T14:23:36.865Z,4.33
2017-08-24T14:26:05.161Z,4.87
2017-08-24T14:28:33.482Z,4.23
2017-08-24T14:31:03.147Z,4.30
2017-08-24T14:33:31.715Z,5.20
2017-08-24T14:36:00.027Z,4.77
2017-08-24T14:38:29.103Z,5.07
2017-08-24T14:40:57.375Z,3.80
2017-08-24T14:43:26.827Z,5.10
2017-08-24T14:45:55.539Z,5.20
2017-08-24T14:48:23.832Z,4.37
2017-08-24T14:50:53.678Z,5.00
2017-08-24T14:53:22.000Z,4.60
2017-08-24T14:55:50.271Z,4.43
2017-08-24T14:58:18.557Z,5.00
2017-08-24T15:00:46.890Z,5.17
2017-08-24T15:03:15.162Z,5.57
2017-08-24T15:05:43.439Z,5.10
2017-08-24T15:08:13.142Z,4.70
2017-08-24T15:10:41.287Z,5.23
2017-08-24T15:13:09.579Z,5.10
2017-08-24T15:15:39.280Z,4.70
2017-08-24T15:18:07.857Z,4.43
2017-08-24T15:20:37.498Z,4.50
2017-08-24T15:23:07.243Z,5.23
2017-08-24T15:25:35.546Z,4.60
2017-08-24T15:28:03.812Z,4.27
2017-08-24T15:30:33.503Z,4.77
2017-08-24T15:33:01.663Z,4.20
2017-08-24T15:35:29.980Z,4.60
2017-08-24T15:37:58.309Z,4.90
2017-08-24T15:40:26.582Z,5.07
2017-08-24T15:42:56.364Z,4.03
2017-08-24T15:45:24.827Z,4.80
2017-08-24T15:47:53.129Z,4.23
2017-08-24T15:50:21.399Z,4.40
2017-08-24T15:52:52.145Z,3.70
2017-08-24T15:55:21.550Z,4.77
2017-08-24T15:57:50.591Z,5.30
2017-08-24T16:00:20.061Z,4.97
2017-08-24T16:02:49.839Z,5.93
2017-08-24T16:05:19.263Z,6.07
2017-08-24T16:07:49.103Z,5.17
2017-08-24T16:10:17.390Z,5.33
2017-08-24T16:12:45.664Z,5.30
2017-08-24T16:15:15.138Z,6.40
2017-08-24T16:17:43.819Z,4.97
2017-08-24T16:20:12.096Z,4.87
2017-08-24T16:22:40.464Z,4.80
2017-08-24T16:25:10.267Z,5.10
2017-08-24T16:27:38.576Z,4.20
2017-08-24T16:30:07.314Z,4.67
2017-08-24T16:32:36.949Z,3.37
2017-08-24T16:35:05.120Z,4.10
2017-08-24T16:37:33.758Z,3.90
2017-08-24T16:40:03.551Z,3.97
2017-08-24T16:42:32.594Z,4.80
2017-08-24T16:45:02.319Z,4.23
2017-08-24T16:47:30.899Z,4.37
2017-08-24T16:49:59.176Z,3.57
2017-08-24T16:52:27.534Z,4.17
2017-08-24T16:54:55.811Z,3.60
2017-08-24T16:57:25.242Z,3.90
2017-08-24T16:59:54.959Z,4.90
2017-08-24T17:02:23.534Z,3.27
2017-08-24T17:04:51.814Z,3.13
2017-08-24T17:07:20.435Z,3.50
2017-08-24T17:09:48.698Z,3.53
2017-08-24T17:12:16.980Z,3.43
2017-08-24T17:14:46.392Z,2.93
2017-08-24T17:17:15.063Z,3.43
2017-08-24T17:19:43.334Z,3.53
2017-08-24T17:22:12.424Z,3.83
2017-08-24T17:24:40.707Z,3.53
2017-08-24T17:27:10.970Z,4.07
2017-08-24T17:29:39.356Z,3.70
2017-08-24T17:32:09.154Z,3.30
2017-08-24T17:34:37.441Z,3.03
2017-08-24T17:37:07.306Z,4.20
2017-08-24T17:39:35.602Z,3.80
2017-08-24T17:42:03.915Z,4.07
2017-08-24T17:44:32.255Z,4.13
2017-08-24T17:47:02.042Z,3.27
2017-08-24T17:49:30.322Z,4.80
2017-08-24T17:51:58.951Z,4.70
2017-08-24T17:54:28.363Z,4.23
2017-08-24T17:56:57.060Z,3.70
2017-08-24T17:59:26.887Z,3.70
2017-08-24T18:01:55.203Z,4.40
2017-08-24T18:04:23.484Z,5.03
2017-08-24T18:06:52.871Z,4.60
2017-08-24T18:09:22.671Z,4.70
2017-08-24T18:11:50.939Z,5.07
2017-08-24T18:14:19.391Z,5.53
2017-08-24T18:16:49.210Z,5.20
2017-08-24T18:19:20.639Z,4.47
2017-08-24T18:21:49.310Z,4.60
2017-08-24T18:24:18.982Z,4.43
2017-08-24T18:26:47.679Z,4.40
2017-08-24T18:29:16.352Z,3.80
2017-08-24T18:31:44.697Z,3.93
2017-08-24T18:34:14.527Z,4.73
2017-08-24T18:36:42.878Z,3.63
2017-08-24T18:39:12.536Z,4.93
2017-08-24T18:41:41.153Z,3.97
2017-08-24T18:44:10.825Z,4.47
2017-08-24T18:46:40.379Z,4.30
2017-08-24T18:49:10.243Z,4.90
2017-08-24T18:51:38.881Z,3.90
2017-08-24T18:54:08.750Z,3.50
2017-08-24T18:56:38.444Z,3.93
2017-08-24T18:59:07.039Z,3.70
2017-08-24T19:01:35.387Z,3.33
2017-08-24T19:04:03.742Z,4.07
2017-08-24T19:06:32.022Z,4.23
2017-08-24T19:09:00.327Z,4.57
2017-08-24T19:11:29.810Z,3.77
2017-08-24T19:13:58.087Z,4.07
2017-08-24T19:16:27.726Z,5.57
2017-08-24T19:18:56.687Z,3.60
2017-08-24T19:21:26.482Z,3.63
2017-08-24T19:23:54.764Z,3.63
2017-08-24T19:26:23.111Z,3.40
2017-08-24T19:28:52.160Z,3.50
2017-08-24T19:31:21.598Z,3.77
2017-08-24T19:33:50.687Z,3.27
2017-08-24T19:36:18.962Z,3.17
2017-08-24T19:38:48.440Z,3.03
2017-08-24T19:41:16.768Z,3.37
2017-08-24T19:43:45.042Z,3.07
2017-08-24T19:46:13.334Z,3.27
2017-08-24T19:48:43.236Z,3.73
2017-08-24T19:51:12.909Z,3.07
2017-08-24T19:53:41.482Z,3.60
2017-08-24T19:56:09.829Z,3.30
2017-08-24T19:58:38.133Z,3.43
2017-08-24T20:01:07.799Z,2.80
2017-08-24T20:03:36.798Z,3.60
2017-08-24T20:06:06.440Z,3.40
2017-08-24T20:08:35.016Z,3.00
2017-08-24T20:11:03.347Z,3.77
2017-08-24T20:13:32.429Z,3.17
2017-08-24T20:16:00.704Z,2.60
2017-08-24T20:18:29.074Z,3.30
2017-08-24T20:20:58.491Z,2.70
2017-08-24T20:23:27.167Z,3.20
2017-08-24T20:25:55.516Z,2.90
2017-08-24T20:28:25.143Z,3.00
2017-08-24T20:30:53.292Z,2.93
2017-08-24T20:33:21.624Z,3.00
2017-08-24T20:35:49.898Z,3.07
2017-08-24T20:38:19.679Z,2.70
2017-08-24T20:40:48.024Z,2.60
2017-08-24T20:43:16.304Z,2.87
2017-08-24T20:45:44.578Z,3.20
2017-08-24T20:48:13.706Z,3.50
2017-08-24T20:50:43.359Z,3.33
2017-08-24T20:53:11.939Z,2.73
2017-08-24T20:55:40.325Z,3.83
2017-08-24T20:58:10.153Z,3.63
2017-08-24T21:00:38.452Z,3.07
2017-08-24T21:03:06.840Z,3.57
2017-08-24T21:05:36.686Z,3.20
2017-08-24T21:08:05.052Z,3.10
2017-08-24T21:10:34.811Z,3.80
2017-08-24T21:13:02.976Z,3.77
2017-08-24T21:15:32.024Z,3.57
2017-08-24T21:18:01.516Z,3.63
2017-08-24T21:20:29.788Z,3.00
2017-08-24T21:22:58.071Z,3.03
2017-08-24T21:25:27.779Z,3.93
2017-08-24T21:27:56.337Z,3.30
2017-08-24T21:30:24.630Z,3.10
2017-08-24T21:32:53.724Z,3.83
2017-08-24T21:35:22.005Z,3.40
2017-08-24T21:37:50.283Z,3.50
2017-08-24T21:40:18.606Z,3.40
2017-08-24T21:42:46.877Z,4.20
2017-08-24T21:45:16.286Z,4.00
2017-08-24T21:47:45.385Z,3.97
2017-08-24T21:50:14.427Z,3.57
2017-08-24T21:52:43.467Z,3.73
2017-08-24T21:55:11.812Z,3.87
2017-08-24T21:57:41.222Z,3.53
2017-08-24T22:00:09.514Z,4.53
2017-08-24T22:02:37.867Z,4.50
2017-08-24T22:05:06.159Z,4.60
2017-08-24T22:07:36.141Z,3.83
2017-08-24T22:10:04.499Z,3.70
2017-08-24T22:12:32.770Z,3.03
2017-08-24T22:15:01.815Z,3.90
2017-08-24T22:17:30.135Z,4.17
2017-08-24T22:19:59.179Z,4.90
2017-08-24T22:22:28.218Z,3.20
2017-08-24T22:24:56.648Z,3.93
2017-08-24T22:27:24.972Z,4.53
2017-08-24T22:29:54.389Z,4.80
2017-08-24T22:32:22.716Z,4.10
2017-08-24T22:34:50.991Z,4.83
2017-08-24T22:37:19.266Z,4.20
2017-08-24T22:39:48.271Z,4.50
2017-08-24T22:42:17.315Z,6.10
2017-08-24T22:44:45.982Z,4.50
2017-08-24T22:47:14.316Z,4.60
2017-08-24T22:49:43.357Z,4.83
2017-08-24T22:52:12.986Z,4.50
2017-08-24T22:54:47.258Z,4.80
2017-08-24T22:57:21.102Z,4.70
2017-08-24T22:59:55.466Z,5.07
2017-08-24T23:02:29.460Z,4.43
2017-08-24T23:04:58.199Z,5.77
2017-08-24T23:07:26.475Z,4.03
2017-08-24T23:09:54.766Z,5.47
2017-08-24T23:12:23.118Z,4.73
2017-08-24T23:14:51.407Z,4.43
2017-08-24T23:17:20.447Z,5.23
2017-08-24T23:19:49.550Z,4.63
2017-08-24T23:22:17.825Z,4.60
2017-08-24T23:24:47.234Z,5.53
2017-08-24T23:27:15.660Z,5.43
2017-08-24T23:29:43.934Z,5.30
2017-08-24T23:32:12.210Z,5.57
2017-08-24T23:34:40.563Z,5.33
2017-08-24T23:37:09.251Z,5.40
2017-08-24T23:39:37.555Z,5.20
2017-08-24T23:42:05.925Z,4.90
2017-08-24T23:44:35.720Z,4.40
2017-08-24T23:47:04.024Z,4.83
2017-08-24T23:49:32.447Z,4.33
2017-08-24T23:52:00.732Z,4.73
2017-08-24T23:54:29.010Z,4.90
2017-08-24T23:56:57.338Z,4.37
2017-08-24T23:59:26.750Z,5.07
